createdAt,value
2022-09-02T00:02:02.091Z,1.23
2022-09-02T00:04:31.861Z,1.20
2022-09-02T00:07:00.916Z,1.00
2022-09-02T07:52:41.268Z,2.43
2022-09-02T07:55:41.405Z,2.35
2022-09-02T07:58:09.953Z,1.90
2022-09-02T08:00:38.834Z,2.00
2022-09-02T08:05:40.279Z,2.10
2022-09-02T08:08:08.353Z,2.45
2022-09-02T08:10:43.420Z,1.85
2022-09-02T08:13:11.050Z,1.70
2022-09-02T08:15:41.177Z,2.40
2022-09-02T08:18:08.784Z,2.08
2022-09-02T08:20:46.119Z,2.08
2022-09-02T08:23:25.689Z,2.30
2022-09-02T08:26:02.575Z,2.00
2022-09-02T08:28:32.149Z,2.00
2022-09-02T08:31:07.465Z,1.75
2022-09-02T08:33:34.832Z,1.85
2022-09-02T08:36:09.160Z,2.20
2022-09-02T08:38:37.526Z,2.05
2022-09-02T08:41:30.498Z,1.90
2022-09-02T08:44:01.951Z,2.15
2022-09-02T08:46:33.806Z,1.73
2022-09-02T08:49:08.348Z,2.10
2022-09-02T08:51:47.668Z,2.10
2022-09-02T08:54:44.185Z,2.38
2022-09-02T08:57:12.457Z,1.90
2022-09-02T09:02:26.797Z,2.40
2022-09-02T09:05:44.537Z,2.13
2022-09-02T09:08:29.909Z,1.95
2022-09-02T09:11:20.978Z,2.22
2022-09-02T09:14:02.566Z,1.77
2022-09-02T09:17:06.623Z,1.38
2022-09-02T09:19:50.151Z,1.65
2022-09-02T09:22:26.410Z,1.65
2022-09-02T09:24:53.431Z,1.45
2022-09-02T09:27:22.980Z,1.65
2022-09-02T09:29:52.655Z,1.58
2022-09-02T09:32:46.478Z,1.50
2022-09-02T09:35:18.950Z,1.65
2022-09-02T09:37:53.652Z,1.35
2022-09-02T09:40:23.515Z,1.33
2022-09-02T09:43:15.595Z,1.52
2022-09-02T09:45:45.721Z,1.55
2022-09-02T09:48:29.892Z,1.20
2022-09-02T09:50:56.992Z,1.50
2022-09-02T09:53:31.216Z,1.30
2022-09-02T09:56:07.610Z,1.30
2022-09-02T09:58:40.566Z,1.10
2022-09-02T10:01:35.192Z,1.35
2022-09-02T10:04:42.734Z,1.40
2022-09-02T10:07:13.531Z,1.17
2022-09-02T10:09:41.006Z,1.58
2022-09-02T10:12:13.085Z,1.30
2022-09-02T10:14:50.366Z,1.48
2022-09-02T10:17:43.646Z,1.40
2022-09-02T10:20:23.307Z,1.40
2022-09-02T10:23:45.265Z,1.30
2022-09-02T10:26:20.122Z,1.30
2022-09-02T10:29:42.155Z,1.10
2022-09-02T10:32:25.448Z,1.20
2022-09-02T10:35:26.179Z,1.17
2022-09-02T10:38:11.042Z,1.50
2022-09-02T10:40:45.714Z,1.50
2022-09-02T10:43:43.957Z,1.17
2022-09-02T10:46:21.630Z,1.00
2022-09-02T10:49:29.814Z,1.35
2022-09-02T10:52:27.477Z,1.50
2022-09-02T10:55:26.663Z,1.30
2022-09-02T10:58:06.338Z,1.10
2022-09-02T11:00:37.910Z,1.20
2022-09-02T11:03:38.758Z,1.35
2022-09-02T11:06:21.681Z,1.17
2022-09-02T11:09:11.951Z,1.30
2022-09-02T11:12:00.598Z,1.20
2022-09-02T11:14:57.935Z,1.23
2022-09-02T11:17:45.041Z,1.20
2022-09-02T11:20:28.340Z,1.35
2022-09-02T11:23:44.986Z,1.20
2022-09-02T11:26:46.113Z,1.10
2022-09-02T11:29:56.425Z,0.98
2022-09-02T11:32:38.025Z,1.52
2022-09-02T11:35:11.518Z,1.10
2022-09-02T11:38:29.306Z,1.25
2022-09-02T11:41:35.873Z,1.20
2022-09-02T11:44:14.688Z,1.33
2022-09-02T11:47:31.987Z,1.10
2022-09-02T11:50:40.693Z,0.98
2022-09-02T11:53:28.234Z,1.40
2022-09-02T11:56:16.854Z,1.70
2022-09-02T11:58:46.560Z,1.25
2022-09-02T12:01:25.869Z,1.13
2022-09-02T12:07:10.259Z,0.95
2022-09-02T12:09:55.525Z,1.20
2022-09-02T12:12:38.314Z,1.10
2022-09-02T12:15:05.537Z,1.13
2022-09-02T12:18:08.786Z,1.30
2022-09-02T12:20:38.955Z,1.20
2022-09-02T12:23:31.420Z,1.20
2022-09-02T12:26:11.869Z,1.15
2022-09-02T12:28:46.363Z,1.05
2022-09-02T12:31:44.089Z,1.00
2022-09-02T12:34:28.585Z,1.25
2022-09-02T12:37:05.091Z,0.95
2022-09-02T12:39:32.069Z,0.93
2022-09-02T12:42:28.693Z,1.00
2022-09-02T12:45:28.672Z,0.98
2022-09-02T12:48:18.679Z,1.10
2022-09-02T12:51:00.155Z,0.80
2022-09-02T12:53:49.041Z,1.17
2022-09-02T12:56:18.995Z,1.00
2022-09-02T12:59:02.323Z,1.30
2022-09-02T13:01:59.552Z,0.93
2022-09-02T13:05:01.922Z,0.80
2022-09-02T13:08:06.432Z,0.88
2022-09-02T13:10:58.268Z,0.98
2022-09-02T13:14:15.372Z,1.00
2022-09-02T13:16:42.401Z,0.80
2022-09-02T13:20:06.936Z,0.90
2022-09-02T13:23:11.887Z,1.10
2022-09-02T13:26:07.993Z,0.90
2022-09-02T13:29:05.807Z,1.10
2022-09-02T13:31:32.991Z,1.10
2022-09-02T13:34:08.258Z,1.10
2022-09-02T13:36:42.857Z,1.20
2022-09-02T13:39:23.730Z,0.88
2022-09-02T13:41:54.289Z,0.95
2022-09-02T13:44:29.479Z,1.08
2022-09-02T13:47:13.532Z,0.80
2022-09-02T13:49:48.373Z,1.15
2022-09-02T13:53:00.972Z,1.30
2022-09-02T13:55:16.653Z,0.80
2022-09-02T13:58:01.739Z,1.08
2022-09-02T14:00:41.296Z,1.52
2022-09-02T14:03:15.155Z,1.02
2022-09-02T14:05:47.754Z,0.80
2022-09-02T14:08:20.788Z,1.02
2022-09-02T14:10:53.308Z,1.10
2022-09-02T14:13:23.182Z,0.90
2022-09-02T14:15:50.300Z,0.93
2022-09-02T14:18:23.204Z,1.10
2022-09-02T14:21:04.117Z,0.90
2022-09-02T14:23:35.823Z,1.02
2022-09-02T14:26:04.478Z,0.80
2022-09-02T14:28:35.539Z,0.98
2022-09-02T14:31:07.463Z,1.40
2022-09-02T14:33:46.144Z,0.90
2022-09-02T14:36:17.834Z,1.15
2022-09-02T14:38:47.501Z,0.82
2022-09-02T14:41:17.674Z,1.08
2022-09-02T14:43:52.173Z,1.10
2022-09-02T14:46:49.920Z,0.90
2022-09-02T14:49:37.224Z,0.80
2022-09-02T14:52:20.098Z,1.10
2022-09-02T14:54:53.048Z,1.00
2022-09-02T14:57:33.159Z,1.17
2022-09-02T15:00:14.447Z,1.27
2022-09-02T15:02:47.605Z,1.38
2022-09-02T15:05:14.976Z,1.00
2022-09-02T15:07:42.746Z,0.80
2022-09-02T15:10:10.009Z,1.10
2022-09-02T15:12:54.972Z,1.00
2022-09-02T15:15:22.081Z,0.90
2022-09-02T15:17:49.043Z,1.10
2022-09-02T15:20:16.321Z,1.00
2022-09-02T15:22:43.546Z,0.90
2022-09-02T15:25:11.077Z,1.40
2022-09-02T15:27:38.448Z,1.20
2022-09-02T15:30:09.256Z,1.08
2022-09-02T15:32:37.823Z,1.00
2022-09-02T15:35:07.025Z,0.85
2022-09-02T15:37:38.033Z,1.15
2022-09-02T15:40:08.207Z,0.77
2022-09-02T15:42:39.038Z,1.77
2022-09-02T15:45:11.477Z,1.10
2022-09-02T15:47:41.082Z,1.25
2022-09-02T15:50:08.700Z,1.02
2022-09-02T15:52:36.511Z,1.08
2022-09-02T15:55:04.816Z,0.90
2022-09-02T15:57:31.764Z,1.50
2022-09-02T15:59:58.812Z,1.10
2022-09-02T16:02:28.299Z,1.00
2022-09-02T16:04:56.375Z,1.10
2022-09-02T16:07:24.187Z,1.20
2022-09-02T16:09:51.171Z,1.10
2022-09-02T16:12:18.172Z,1.20
2022-09-02T16:14:49.200Z,1.00
2022-09-02T16:17:16.821Z,1.00
2022-09-02T16:19:48.840Z,1.10
2022-09-02T16:22:15.875Z,1.33
2022-09-02T16:24:42.816Z,1.25
2022-09-02T16:27:10.065Z,1.20
2022-09-02T16:29:37.335Z,1.30
2022-09-02T16:32:24.267Z,1.23
2022-09-02T16:34:55.640Z,1.20
2022-09-02T16:37:22.691Z,1.00
2022-09-02T16:39:49.883Z,1.10
2022-09-02T16:42:16.798Z,1.00
2022-09-02T16:44:45.036Z,1.10
2022-09-02T16:47:13.726Z,1.20
2022-09-02T16:49:46.144Z,1.13
2022-09-02T16:52:13.521Z,1.20
2022-09-02T16:54:41.283Z,1.00
2022-09-02T16:57:08.913Z,1.05
2022-09-02T16:59:36.017Z,1.17
2022-09-02T17:02:03.251Z,1.30
2022-09-02T17:04:30.885Z,1.30
2022-09-02T17:06:57.922Z,1.10
2022-09-02T17:09:24.966Z,0.90
2022-09-02T17:11:53.841Z,1.00
2022-09-02T17:14:21.861Z,1.27
2022-09-02T17:16:51.489Z,1.08
2022-09-02T17:19:26.194Z,1.15
2022-09-02T17:21:55.790Z,1.20
2022-09-02T17:24:27.847Z,1.20
2022-09-02T17:26:56.008Z,1.20
2022-09-02T17:29:48.826Z,0.90
2022-09-02T17:32:17.505Z,1.10
2022-09-02T17:34:44.828Z,1.08
2022-09-02T17:37:14.985Z,0.98
2022-09-02T17:39:42.148Z,0.90
2022-09-02T17:42:09.412Z,1.20
2022-09-02T17:44:41.485Z,1.20
2022-09-02T17:47:20.115Z,1.25
2022-09-02T17:49:48.668Z,0.93
2022-09-02T17:52:21.759Z,1.13
2022-09-02T17:54:57.427Z,0.88
2022-09-02T17:57:46.152Z,1.00
2022-09-02T18:00:23.066Z,1.02
2022-09-02T18:03:18.049Z,1.10
2022-09-02T18:05:54.645Z,1.02
2022-09-02T18:08:58.377Z,0.98
2022-09-02T18:11:26.132Z,0.88
2022-09-02T18:14:37.552Z,1.00
2022-09-02T18:17:52.940Z,1.20
2022-09-02T18:20:25.723Z,1.10
2022-09-02T18:23:32.653Z,1.08
2022-09-02T18:26:36.130Z,1.17
2022-09-02T18:29:18.858Z,1.30
2022-09-02T18:32:19.729Z,1.50
2022-09-02T18:35:04.964Z,1.45
2022-09-02T18:38:07.761Z,1.20
2022-09-02T18:41:08.109Z,1.42
2022-09-02T18:44:10.253Z,1.20
2022-09-02T18:46:56.479Z,1.23
2022-09-02T18:49:26.123Z,1.10
2022-09-02T18:51:59.187Z,1.20
2022-09-02T18:54:46.193Z,1.00
2022-09-02T18:57:14.788Z,1.00
2022-09-02T19:00:07.476Z,1.23
2022-09-02T19:02:54.688Z,1.50
2022-09-02T19:05:25.729Z,1.00
2022-09-02T19:08:23.557Z,1.20
2022-09-02T19:11:08.986Z,1.23
2022-09-02T19:14:02.834Z,1.30
2022-09-02T19:16:35.113Z,1.27
2022-09-02T19:19:03.230Z,1.40
2022-09-02T19:21:36.219Z,1.20
2022-09-02T19:24:10.100Z,1.23
2022-09-02T19:26:40.298Z,1.35
2022-09-02T19:29:12.956Z,1.10
2022-09-02T19:31:42.966Z,1.25
2022-09-02T19:34:10.737Z,1.17
2022-09-02T19:36:42.826Z,1.33
2022-09-02T19:39:10.105Z,1.20
2022-09-02T19:41:37.339Z,1.33
2022-09-02T19:44:04.235Z,1.30
2022-09-02T19:49:18.129Z,1.17
2022-09-02T19:51:45.993Z,1.00
2022-09-02T19:54:15.047Z,1.35
2022-09-02T19:56:42.627Z,1.30
2022-09-02T19:59:10.958Z,1.48
2022-09-02T20:01:38.682Z,1.30
2022-09-02T20:04:06.427Z,1.40
2022-09-02T20:06:33.492Z,1.45
2022-09-02T20:09:00.450Z,1.10
2022-09-02T20:11:28.106Z,1.48
2022-09-02T20:13:56.380Z,1.40
2022-09-02T20:16:29.069Z,1.23
2022-09-02T20:18:56.892Z,1.20
2022-09-02T20:21:44.535Z,1.20
2022-09-02T20:24:19.028Z,1.30
2022-09-02T20:27:12.527Z,1.25
2022-09-02T20:30:01.613Z,1.23
2022-09-02T20:32:43.423Z,1.38
2022-09-02T20:35:49.185Z,1.65
2022-09-02T20:38:40.487Z,1.30
2022-09-02T20:41:30.735Z,1.45
2022-09-02T20:44:31.573Z,1.20
2022-09-02T20:47:30.440Z,1.40
2022-09-02T20:50:37.871Z,1.33
2022-09-02T20:53:29.767Z,1.30
2022-09-02T20:56:10.532Z,1.30
2022-09-02T20:59:16.684Z,1.50
2022-09-02T21:01:45.507Z,1.30
2022-09-02T21:04:24.417Z,1.48
2022-09-02T21:07:01.279Z,1.17
2022-09-02T21:09:46.533Z,1.20
2022-09-02T21:12:32.411Z,1.13
2022-09-02T21:15:45.915Z,1.20
2022-09-02T21:18:36.115Z,1.40
2022-09-02T21:21:47.858Z,1.30
2022-09-02T21:24:37.137Z,1.05
2022-09-02T21:27:45.543Z,1.20
2022-09-02T21:30:19.924Z,1.25
2022-09-02T21:32:54.642Z,1.40
2022-09-02T21:35:48.556Z,1.20
2022-09-02T21:38:37.878Z,1.30
2022-09-02T21:41:16.923Z,1.00
2022-09-02T21:44:14.360Z,1.10
2022-09-02T21:47:30.692Z,1.00
2022-09-02T21:51:04.876Z,1.05
2022-09-02T21:54:15.612Z,1.15
2022-09-02T21:57:29.140Z,0.93
2022-09-02T22:00:02.219Z,1.20
2022-09-02T22:02:34.182Z,1.20
2022-09-02T22:05:38.964Z,1.30
2022-09-02T22:08:31.810Z,1.20
2022-09-02T22:11:13.714Z,1.20
2022-09-02T22:13:42.087Z,1.17
2022-09-02T22:16:51.266Z,1.20
2022-09-02T22:19:23.134Z,1.13
2022-09-02T22:22:01.331Z,1.30
2022-09-02T22:24:31.106Z,1.23
2022-09-02T22:27:05.955Z,1.10
2022-09-02T22:29:52.244Z,1.00
2022-09-02T22:32:31.655Z,1.20
2022-09-02T22:35:36.279Z,1.25
2022-09-02T22:38:46.288Z,1.00
2022-09-02T22:41:27.814Z,1.10
2022-09-02T22:44:52.518Z,1.30
2022-09-02T22:47:43.124Z,1.10
2022-09-02T22:50:38.542Z,1.00
2022-09-02T22:53:05.495Z,1.00
2022-09-02T22:56:02.614Z,1.08
2022-09-02T22:59:16.987Z,0.95
2022-09-02T23:02:05.807Z,1.10
2022-09-02T23:04:55.659Z,0.98
2022-09-02T23:07:24.838Z,1.02
2022-09-02T23:09:57.208Z,1.10
2022-09-02T23:12:49.067Z,1.08
2022-09-02T23:15:45.109Z,0.85
2022-09-02T23:18:26.800Z,1.17
2022-09-02T23:21:22.477Z,1.10
2022-09-02T23:24:41.622Z,0.80
2022-09-02T23:27:31.063Z,1.02
2022-09-02T23:29:58.071Z,1.02
2022-09-02T23:32:44.917Z,1.10
2022-09-02T23:35:33.737Z,1.00
2022-09-02T23:38:33.196Z,0.98
2022-09-02T23:41:09.956Z,0.90
2022-09-02T23:43:39.552Z,1.10
2022-09-02T23:46:56.731Z,0.90
2022-09-02T23:50:25.374Z,1.30
2022-09-02T23:53:06.861Z,1.10
2022-09-02T23:55:51.139Z,0.80
2022-09-02T23:58:57.532Z,1.05
